sensor_id;sensor_type;location;lat;lon;timestamp;pressure;altitude;pressure_sealevel;temperature;humidity
68137;BME280;54939;50.826;9.030;2023-01-28T00:00:18;99595.28;;;4.38;70.59
68137;BME280;54939;50.826;9.030;2023-01-28T00:00:48;99605.09;;;4.36;70.19
68137;BME280;54939;50.826;9.030;2023-01-28T00:01:19;99589.25;;;4.36;70.76
68137;BME280;54939;50.826;9.030;2023-01-28T00:01:49;99600.78;;;4.35;70.30
68137;BME280;54939;50.826;9.030;2023-01-28T00:02:19;99597.28;;;4.34;70.11
68137;BME280;54939;50.826;9.030;2023-01-28T00:02:49;99602.56;;;4.34;70.31
68137;BME280;54939;50.826;9.030;2023-01-28T00:03:19;99606.06;;;4.35;70.09
68137;BME280;54939;50.826;9.030;2023-01-28T00:03:50;99600.78;;;4.35;70.61
68137;BME280;54939;50.826;9.030;2023-01-28T00:04:21;99608.81;;;4.33;70.77
68137;BME280;54939;50.826;9.030;2023-01-28T00:04:51;99593.88;;;4.32;70.32
68137;BME280;54939;50.826;9.030;2023-01-28T00:05:21;99600.09;;;4.31;70.91
68137;BME280;54939;50.826;9.030;2023-01-28T00:06:00;99599.94;;;4.34;70.26
68137;BME280;54939;50.826;9.030;2023-01-28T00:06:30;99605.22;;;4.34;70.44
68137;BME280;54939;50.826;9.030;2023-01-28T00:07:00;99597.38;;;4.33;70.78
68137;BME280;54939;50.826;9.030;2023-01-28T00:07:31;99595.59;;;4.33;70.43
68137;BME280;54939;50.826;9.030;2023-01-28T00:08:01;99601.63;;;4.35;70.11
68137;BME280;54939;50.826;9.030;2023-01-28T00:08:31;99600.03;;;4.33;70.38
68137;BME280;54939;50.826;9.030;2023-01-28T00:09:02;99602.66;;;4.33;70.13
68137;BME280;54939;50.826;9.030;2023-01-28T00:09:32;99600.03;;;4.33;70.49
68137;BME280;54939;50.826;9.030;2023-01-28T00:10:03;99604.38;;;4.34;70.87
68137;BME280;54939;50.826;9.030;2023-01-28T00:10:33;99608.72;;;4.35;70.49
68137;BME280;54939;50.826;9.030;2023-01-28T00:11:04;99605.22;;;4.34;70.08
68137;BME280;54939;50.826;9.030;2023-01-28T00:11:34;99605.22;;;4.34;70.03
68137;BME280;54939;50.826;9.030;2023-01-28T00:12:04;99607.75;;;4.36;70.53
68137;BME280;54939;50.826;9.030;2023-01-28T00:12:35;99606.06;;;4.35;70.14
68137;BME280;54939;50.826;9.030;2023-01-28T00:13:05;99608.59;;;4.36;70.20
68137;BME280;54939;50.826;9.030;2023-01-28T00:13:36;99605.09;;;4.36;70.58
68137;BME280;54939;50.826;9.030;2023-01-28T00:14:06;99609.56;;;4.35;70.06
68137;BME280;54939;50.826;9.030;2023-01-28T00:14:36;99610.38;;;4.36;70.79
68137;BME280;54939;50.826;9.030;2023-01-28T00:15:06;99607.75;;;4.36;70.07
68137;BME280;54939;50.826;9.030;2023-01-28T00:15:37;99598.03;;;4.36;70.45
68137;BME280;54939;50.826;9.030;2023-01-28T00:16:07;99604.28;;;4.35;70.22
68137;BME280;54939;50.826;9.030;2023-01-28T00:16:38;99605.00;;;4.38;70.35
68137;BME280;54939;50.826;9.030;2023-01-28T00:17:08;99605.94;;;4.36;70.14
68137;BME280;54939;50.826;9.030;2023-01-28T00:17:39;99601.63;;;4.35;70.46
68137;BME280;54939;50.826;9.030;2023-01-28T00:18:09;99598.22;;;4.33;70.02
68137;BME280;54939;50.826;9.030;2023-01-28T00:18:39;99604.28;;;4.35;70.66
68137;BME280;54939;50.826;9.030;2023-01-28T00:19:09;99601.63;;;4.35;70.22
68137;BME280;54939;50.826;9.030;2023-01-28T00:19:40;99594.66;;;4.34;70.56
68137;BME280;54939;50.826;9.030;2023-01-28T00:20:10;99604.28;;;4.35;70.57
68137;BME280;54939;50.826;9.030;2023-01-28T00:20:40;99605.22;;;4.34;70.08
68137;BME280;54939;50.826;9.030;2023-01-28T00:21:11;99606.06;;;4.35;70.56
68137;BME280;54939;50.826;9.030;2023-01-28T00:21:42;99606.94;;;4.35;70.19
68137;BME280;54939;50.826;9.030;2023-01-28T00:22:12;99600.78;;;4.35;70.71
68137;BME280;54939;50.826;9.030;2023-01-28T00:22:46;99594.66;;;4.34;70.20
68137;BME280;54939;50.826;9.030;2023-01-28T00:23:16;99606.94;;;4.35;70.79
68137;BME280;54939;50.826;9.030;2023-01-28T00:23:49;99594.66;;;4.34;70.42
68137;BME280;54939;50.826;9.030;2023-01-28T00:24:20;99606.94;;;4.35;70.33
68137;BME280;54939;50.826;9.030;2023-01-28T00:24:50;99600.66;;;4.36;70.16
68137;BME280;54939;50.826;9.030;2023-01-28T00:25:21;99595.50;;;4.35;70.27
68137;BME280;54939;50.826;9.030;2023-01-28T00:25:51;99595.50;;;4.35;70.74
68137;BME280;54939;50.826;9.030;2023-01-28T00:26:21;99603.44;;;4.35;69.98
68137;BME280;54939;50.826;9.030;2023-01-28T00:26:52;99600.78;;;4.35;70.63
68137;BME280;54939;50.826;9.030;2023-01-28T00:27:22;99593.88;;;4.32;70.29
68137;BME280;54939;50.826;9.030;2023-01-28T00:27:52;99592.09;;;4.33;70.20
68137;BME280;54939;50.826;9.030;2023-01-28T00:28:22;99598.13;;;4.35;70.54
68137;BME280;54939;50.826;9.030;2023-01-28T00:28:52;99597.16;;;4.36;70.58
68137;BME280;54939;50.826;9.030;2023-01-28T00:29:22;99593.59;;;4.37;70.19
68137;BME280;54939;50.826;9.030;2023-01-28T00:29:52;99598.03;;;4.36;70.22
68137;BME280;54939;50.826;9.030;2023-01-28T00:30:24;99601.53;;;4.37;70.12
68137;BME280;54939;50.826;9.030;2023-01-28T00:30:54;99595.38;;;4.36;70.61
68137;BME280;54939;50.826;9.030;2023-01-28T00:31:25;99591.88;;;4.36;70.95
68137;BME280;54939;50.826;9.030;2023-01-28T00:31:56;99596.34;;;4.35;70.74
68137;BME280;54939;50.826;9.030;2023-01-28T00:32:26;99599.00;;;4.35;70.48
68137;BME280;54939;50.826;9.030;2023-01-28T00:32:56;99594.53;;;4.36;70.86
68137;BME280;54939;50.826;9.030;2023-01-28T00:33:26;99598.88;;;4.37;70.73
68137;BME280;54939;50.826;9.030;2023-01-28T00:33:58;99594.44;;;4.38;70.62
68137;BME280;54939;50.826;9.030;2023-01-28T00:34:28;99594.44;;;4.38;70.29
68137;BME280;54939;50.826;9.030;2023-01-28T00:34:58;99594.44;;;4.38;70.24
68137;BME280;54939;50.826;9.030;2023-01-28T00:35:28;99594.44;;;4.38;70.59
68137;BME280;54939;50.826;9.030;2023-01-28T00:35:59;99597.94;;;4.38;70.38
68137;BME280;54939;50.826;9.030;2023-01-28T00:36:29;99592.66;;;4.38;70.21
68137;BME280;54939;50.826;9.030;2023-01-28T00:37:00;99594.44;;;4.38;70.00
68137;BME280;54939;50.826;9.030;2023-01-28T00:37:30;99597.94;;;4.38;70.15
68137;BME280;54939;50.826;9.030;2023-01-28T00:38:00;99595.38;;;4.36;70.66
68137;BME280;54939;50.826;9.030;2023-01-28T00:38:33;99598.03;;;4.36;70.54
68137;BME280;54939;50.826;9.030;2023-01-28T00:39:04;99596.34;;;4.35;69.87
68137;BME280;54939;50.826;9.030;2023-01-28T00:39:34;99594.66;;;4.34;70.37
68137;BME280;54939;50.826;9.030;2023-01-28T00:40:05;99597.16;;;4.36;69.94
68137;BME280;54939;50.826;9.030;2023-01-28T00:40:35;99596.34;;;4.35;70.62
68137;BME280;54939;50.826;9.030;2023-01-28T00:41:12;99596.34;;;4.35;70.38
68137;BME280;54939;50.826;9.030;2023-01-28T00:41:43;99590.09;;;4.36;69.87
68137;BME280;54939;50.826;9.030;2023-01-28T00:42:13;99602.47;;;4.36;70.64
68137;BME280;54939;50.826;9.030;2023-01-28T00:42:43;99595.38;;;4.36;70.22
68137;BME280;54939;50.826;9.030;2023-01-28T00:43:13;99595.50;;;4.35;70.65
68137;BME280;54939;50.826;9.030;2023-01-28T00:43:44;99588.41;;;4.35;70.03
68137;BME280;54939;50.826;9.030;2023-01-28T00:44:14;99592.84;;;4.35;69.95
68137;BME280;54939;50.826;9.030;2023-01-28T00:44:44;99587.56;;;4.35;70.04
68137;BME280;54939;50.826;9.030;2023-01-28T00:45:15;99589.34;;;4.34;70.06
68137;BME280;54939;50.826;9.030;2023-01-28T00:45:45;99595.50;;;4.35;70.27
68137;BME280;54939;50.826;9.030;2023-01-28T00:46:15;99592.00;;;4.34;69.95
68137;BME280;54939;50.826;9.030;2023-01-28T00:46:46;99588.41;;;4.35;70.67
68137;BME280;54939;50.826;9.030;2023-01-28T00:47:16;99585.78;;;4.35;70.67
68137;BME280;54939;50.826;9.030;2023-01-28T00:47:46;99589.25;;;4.36;70.26
68137;BME280;54939;50.826;9.030;2023-01-28T00:48:17;99584.91;;;4.35;70.16
68137;BME280;54939;50.826;9.030;2023-01-28T00:48:47;99585.78;;;4.35;70.67
68137;BME280;54939;50.826;9.030;2023-01-28T00:49:18;99584.06;;;4.34;70.51
68137;BME280;54939;50.826;9.030;2023-01-28T00:49:48;99582.38;;;4.33;70.33
68137;BME280;54939;50.826;9.030;2023-01-28T00:50:18;99586.72;;;4.34;70.13
68137;BME280;54939;50.826;9.030;2023-01-28T00:50:50;99590.22;;;4.35;70.70
68137;BME280;54939;50.826;9.030;2023-01-28T00:51:20;99582.28;;;4.35;70.02
68137;BME280;54939;50.826;9.030;2023-01-28T00:51:50;99579.72;;;4.33;70.35
68137;BME280;54939;50.826;9.030;2023-01-28T00:52:20;99585.00;;;4.33;70.71
68137;BME280;54939;50.826;9.030;2023-01-28T00:52:51;99586.72;;;4.34;70.21
68137;BME280;54939;50.826;9.030;2023-01-28T00:53:21;99591.16;;;4.34;69.92
68137;BME280;54939;50.826;9.030;2023-01-28T00:53:51;99589.25;;;4.36;70.43
68137;BME280;54939;50.826;9.030;2023-01-28T00:54:22;99585.78;;;4.35;70.14
68137;BME280;54939;50.826;9.030;2023-01-28T00:54:53;99584.81;;;4.36;70.46
68137;BME280;54939;50.826;9.030;2023-01-28T00:55:23;99583.94;;;4.36;70.11
68137;BME280;54939;50.826;9.030;2023-01-28T00:55:53;99583.94;;;4.36;70.62
68137;BME280;54939;50.826;9.030;2023-01-28T00:56:24;99582.28;;;4.35;69.81
68137;BME280;54939;50.826;9.030;2023-01-28T00:56:54;99587.66;;;4.33;70.63
68137;BME280;54939;50.826;9.030;2023-01-28T00:57:24;99585.78;;;4.35;70.09
68137;BME280;54939;50.826;9.030;2023-01-28T00:57:54;99585.78;;;4.35;70.01
68137;BME280;54939;50.826;9.030;2023-01-28T00:58:24;99576.13;;;4.34;70.30
68137;BME280;54939;50.826;9.030;2023-01-28T00:58:55;99589.34;;;4.34;70.22
68137;BME280;54939;50.826;9.030;2023-01-28T00:59:25;99582.28;;;4.35;70.34
68137;BME280;54939;50.826;9.030;2023-01-28T00:59:55;99578.88;;;4.33;70.68
68137;BME280;54939;50.826;9.030;2023-01-28T01:00:26;99578.78;;;4.34;70.08
68137;BME280;54939;50.826;9.030;2023-01-28T01:00:56;99578.78;;;4.34;70.33
68137;BME280;54939;50.826;9.030;2023-01-28T01:01:26;99583.94;;;4.36;70.49
68137;BME280;54939;50.826;9.030;2023-01-28T01:01:57;99577.84;;;4.35;70.35
68137;BME280;54939;50.826;9.030;2023-01-28T01:02:41;99580.50;;;4.35;70.33
68137;BME280;54939;50.826;9.030;2023-01-28T01:03:11;99579.72;;;4.33;70.36
68137;BME280;54939;50.826;9.030;2023-01-28T01:03:41;99579.63;;;4.35;70.50
68137;BME280;54939;50.826;9.030;2023-01-28T01:04:12;99584.81;;;4.36;70.00
68137;BME280;54939;50.826;9.030;2023-01-28T01:04:42;99584.81;;;4.36;70.23
68137;BME280;54939;50.826;9.030;2023-01-28T01:05:23;99578.66;;;4.36;69.98
68137;BME280;54939;50.826;9.030;2023-01-28T01:05:56;99583.94;;;4.36;69.87
68137;BME280;54939;50.826;9.030;2023-01-28T01:06:26;99583.00;;;4.37;70.61
68137;BME280;54939;50.826;9.030;2023-01-28T01:06:56;99581.31;;;4.36;70.22
68137;BME280;54939;50.826;9.030;2023-01-28T01:07:27;99578.66;;;4.36;70.35
68137;BME280;54939;50.826;9.030;2023-01-28T01:08:12;99582.16;;;4.36;70.21
68137;BME280;54939;50.826;9.030;2023-01-28T01:08:42;99582.16;;;4.36;70.51
68137;BME280;54939;50.826;9.030;2023-01-28T01:09:19;99586.50;;;4.38;70.04
68137;BME280;54939;50.826;9.030;2023-01-28T01:09:49;99580.38;;;4.37;70.15
68137;BME280;54939;50.826;9.030;2023-01-28T01:10:19;99585.56;;;4.39;70.51
68137;BME280;54939;50.826;9.030;2023-01-28T01:10:49;99584.72;;;4.38;70.07
68137;BME280;54939;50.826;9.030;2023-01-28T01:11:20;99578.59;;;4.38;70.54
68137;BME280;54939;50.826;9.030;2023-01-28T01:11:50;99573.28;;;4.38;69.85
68137;BME280;54939;50.826;9.030;2023-01-28T01:12:20;99580.28;;;4.39;70.10
68137;BME280;54939;50.826;9.030;2023-01-28T01:12:50;99577.63;;;4.39;70.58
68137;BME280;54939;50.826;9.030;2023-01-28T01:13:20;99577.63;;;4.39;69.93
68137;BME280;54939;50.826;9.030;2023-01-28T01:13:51;99577.63;;;4.39;70.14
68137;BME280;54939;50.826;9.030;2023-01-28T01:14:21;99582.06;;;4.38;69.97
68137;BME280;54939;50.826;9.030;2023-01-28T01:14:52;99582.00;;;4.40;70.36
68137;BME280;54939;50.826;9.030;2023-01-28T01:15:22;99575.94;;;4.38;70.16
68137;BME280;54939;50.826;9.030;2023-01-28T01:16:03;99582.06;;;4.38;70.34
68137;BME280;54939;50.826;9.030;2023-01-28T01:16:33;99578.59;;;4.38;70.31
68137;BME280;54939;50.826;9.030;2023-01-28T01:17:05;99576.78;;;4.38;70.63
68137;BME280;54939;50.826;9.030;2023-01-28T01:17:35;99580.28;;;4.39;70.51
68137;BME280;54939;50.826;9.030;2023-01-28T01:18:06;99581.22;;;4.38;70.42
68137;BME280;54939;50.826;9.030;2023-01-28T01:18:37;99583.00;;;4.37;70.55
68137;BME280;54939;50.826;9.030;2023-01-28T01:19:10;99575.19;;;4.35;70.49
68137;BME280;54939;50.826;9.030;2023-01-28T01:19:40;99582.16;;;4.36;69.91
68137;BME280;54939;50.826;9.030;2023-01-28T01:20:13;99581.22;;;4.38;69.84
68137;BME280;54939;50.826;9.030;2023-01-28T01:20:43;99579.44;;;4.38;69.94
68137;BME280;54939;50.826;9.030;2023-01-28T01:21:20;99580.38;;;4.37;70.01
68137;BME280;54939;50.826;9.030;2023-01-28T01:21:50;99571.59;;;4.36;70.51
68137;BME280;54939;50.826;9.030;2023-01-28T01:22:20;99576.03;;;4.36;69.93
68137;BME280;54939;50.826;9.030;2023-01-28T01:22:51;99579.53;;;4.36;70.11
68137;BME280;54939;50.826;9.030;2023-01-28T01:23:21;99582.28;;;4.35;70.40
68137;BME280;54939;50.826;9.030;2023-01-28T01:23:51;99575.28;;;4.34;69.78
68137;BME280;54939;50.826;9.030;2023-01-28T01:24:21;99577.84;;;4.35;70.60
68137;BME280;54939;50.826;9.030;2023-01-28T01:24:51;99576.88;;;4.36;70.63
68137;BME280;54939;50.826;9.030;2023-01-28T01:25:22;99578.78;;;4.34;69.87
68137;BME280;54939;50.826;9.030;2023-01-28T01:25:52;99577.84;;;4.35;70.17
68137;BME280;54939;50.826;9.030;2023-01-28T01:26:22;99578.78;;;4.34;69.90
68137;BME280;54939;50.826;9.030;2023-01-28T01:26:52;99586.59;;;4.36;70.29
68137;BME280;54939;50.826;9.030;2023-01-28T01:27:22;99577.72;;;4.37;70.51
68137;BME280;54939;50.826;9.030;2023-01-28T01:27:53;99578.59;;;4.38;70.13
68137;BME280;54939;50.826;9.030;2023-01-28T01:28:23;99579.44;;;4.38;70.08
68137;BME280;54939;50.826;9.030;2023-01-28T01:28:53;99581.22;;;4.38;70.04
68137;BME280;54939;50.826;9.030;2023-01-28T01:29:23;99585.56;;;4.39;70.52
68137;BME280;54939;50.826;9.030;2023-01-28T01:29:53;99578.59;;;4.38;70.11
68137;BME280;54939;50.826;9.030;2023-01-28T01:30:24;99578.50;;;4.39;69.95
68137;BME280;54939;50.826;9.030;2023-01-28T01:30:58;99577.63;;;4.39;69.70
68137;BME280;54939;50.826;9.030;2023-01-28T01:31:28;99578.59;;;4.38;70.39
68137;BME280;54939;50.826;9.030;2023-01-28T01:31:58;99583.00;;;4.37;70.50
68137;BME280;54939;50.826;9.030;2023-01-28T01:32:29;99581.31;;;4.36;70.03
68137;BME280;54939;50.826;9.030;2023-01-28T01:32:59;99577.84;;;4.35;70.58
68137;BME280;54939;50.826;9.030;2023-01-28T01:33:30;99577.00;;;4.35;70.19
68137;BME280;54939;50.826;9.030;2023-01-28T01:34:00;99579.72;;;4.33;70.50
68137;BME280;54939;50.826;9.030;2023-01-28T01:34:30;99573.50;;;4.34;70.59
68137;BME280;54939;50.826;9.030;2023-01-28T01:35:01;99574.34;;;4.35;69.83
68137;BME280;54939;50.826;9.030;2023-01-28T01:35:31;99574.34;;;4.35;70.33
68137;BME280;54939;50.826;9.030;2023-01-28T01:36:01;99576.03;;;4.36;70.51
68137;BME280;54939;50.826;9.030;2023-01-28T01:36:32;99576.13;;;4.34;70.43
68137;BME280;54939;50.826;9.030;2023-01-28T01:37:02;99573.50;;;4.34;69.75
68137;BME280;54939;50.826;9.030;2023-01-28T01:37:35;99574.44;;;4.33;69.89
68137;BME280;54939;50.826;9.030;2023-01-28T01:38:05;99588.41;;;4.35;70.44
68137;BME280;54939;50.826;9.030;2023-01-28T01:38:36;99579.63;;;4.35;69.95
68137;BME280;54939;50.826;9.030;2023-01-28T01:39:08;99585.78;;;4.35;69.97
68137;BME280;54939;50.826;9.030;2023-01-28T01:39:40;99578.66;;;4.36;70.19
68137;BME280;54939;50.826;9.030;2023-01-28T01:40:10;99579.72;;;4.33;70.20
68137;BME280;54939;50.826;9.030;2023-01-28T01:40:41;99581.44;;;4.34;70.30
68137;BME280;54939;50.826;9.030;2023-01-28T01:41:53;99578.03;;;4.32;70.34
68137;BME280;54939;50.826;9.030;2023-01-28T01:42:24;99582.38;;;4.33;70.47
68137;BME280;54939;50.826;9.030;2023-01-28T01:42:54;99580.66;;;4.32;70.34
68137;BME280;54939;50.826;9.030;2023-01-28T01:43:25;99576.13;;;4.34;70.28
68137;BME280;54939;50.826;9.030;2023-01-28T01:43:57;99571.72;;;4.35;69.83
68137;BME280;54939;50.826;9.030;2023-01-28T01:45:16;99580.50;;;4.35;70.05
68137;BME280;54939;50.826;9.030;2023-01-28T01:45:48;99585.00;;;4.33;70.17
68137;BME280;54939;50.826;9.030;2023-01-28T01:46:21;99581.31;;;4.36;70.14
68137;BME280;54939;50.826;9.030;2023-01-28T01:46:53;99576.88;;;4.36;69.87
68137;BME280;54939;50.826;9.030;2023-01-28T01:48:16;99578.78;;;4.34;70.01
68137;BME280;54939;50.826;9.030;2023-01-28T01:48:49;99582.38;;;4.33;70.58
68137;BME280;54939;50.826;9.030;2023-01-28T01:49:20;99581.44;;;4.34;69.97
68137;BME280;54939;50.826;9.030;2023-01-28T01:49:51;99577.00;;;4.35;69.79
68137;BME280;54939;50.826;9.030;2023-01-28T01:50:27;99580.50;;;4.35;70.65
68137;BME280;54939;50.826;9.030;2023-01-28T01:51:12;99581.31;;;4.36;70.39
68137;BME280;54939;50.826;9.030;2023-01-28T01:51:43;99577.84;;;4.35;70.39
68137;BME280;54939;50.826;9.030;2023-01-28T01:52:17;99582.16;;;4.36;69.97
68137;BME280;54939;50.826;9.030;2023-01-28T01:52:48;99580.50;;;4.35;70.50
68137;BME280;54939;50.826;9.030;2023-01-28T01:53:20;99584.06;;;4.34;70.44
68137;BME280;54939;50.826;9.030;2023-01-28T01:53:51;99582.16;;;4.36;70.51
68137;BME280;54939;50.826;9.030;2023-01-28T01:54:22;99583.94;;;4.36;70.02
68137;BME280;54939;50.826;9.030;2023-01-28T01:54:56;99586.59;;;4.36;69.80
68137;BME280;54939;50.826;9.030;2023-01-28T01:55:29;99578.78;;;4.34;70.00
68137;BME280;54939;50.826;9.030;2023-01-28T01:56:01;99585.00;;;4.33;70.64
68137;BME280;54939;50.826;9.030;2023-01-28T01:56:32;99581.44;;;4.34;70.07
68137;BME280;54939;50.826;9.030;2023-01-28T01:57:04;99579.63;;;4.35;69.89
68137;BME280;54939;50.826;9.030;2023-01-28T01:57:36;99574.34;;;4.35;70.31
68137;BME280;54939;50.826;9.030;2023-01-28T01:58:07;99579.63;;;4.35;69.80
68137;BME280;54939;50.826;9.030;2023-01-28T01:58:39;99581.44;;;4.34;70.33
68137;BME280;54939;50.826;9.030;2023-01-28T01:59:11;99579.72;;;4.33;70.52
68137;BME280;54939;50.826;9.030;2023-01-28T01:59:44;99582.38;;;4.33;69.96
68137;BME280;54939;50.826;9.030;2023-01-28T02:00:14;99580.66;;;4.32;69.84
68137;BME280;54939;50.826;9.030;2023-01-28T02:00:45;99585.94;;;4.32;70.37
68137;BME280;54939;50.826;9.030;2023-01-28T02:01:16;99590.22;;;4.35;70.37
68137;BME280;54939;50.826;9.030;2023-01-28T02:01:48;99581.44;;;4.34;69.75
68137;BME280;54939;50.826;9.030;2023-01-28T02:02:18;99579.63;;;4.35;69.88
68137;BME280;54939;50.826;9.030;2023-01-28T02:02:48;99584.91;;;4.35;69.83
68137;BME280;54939;50.826;9.030;2023-01-28T02:03:28;99583.13;;;4.35;69.98
68137;BME280;54939;50.826;9.030;2023-01-28T02:04:02;99585.78;;;4.35;70.42
68137;BME280;54939;50.826;9.030;2023-01-28T02:04:35;99585.78;;;4.35;70.31
68137;BME280;54939;50.826;9.030;2023-01-28T02:05:07;99583.94;;;4.36;69.75
68137;BME280;54939;50.826;9.030;2023-01-28T02:05:38;99586.59;;;4.36;70.48
68137;BME280;54939;50.826;9.030;2023-01-28T02:06:08;99581.31;;;4.36;70.13
68137;BME280;54939;50.826;9.030;2023-01-28T02:06:38;99585.66;;;4.37;69.83
68137;BME280;54939;50.826;9.030;2023-01-28T02:07:10;99581.31;;;4.36;70.33
68137;BME280;54939;50.826;9.030;2023-01-28T02:07:42;99582.16;;;4.36;70.00
68137;BME280;54939;50.826;9.030;2023-01-28T02:08:13;99586.50;;;4.38;69.83
68137;BME280;54939;50.826;9.030;2023-01-28T02:08:52;99583.00;;;4.37;70.50
68137;BME280;54939;50.826;9.030;2023-01-28T02:09:32;99588.31;;;4.37;70.56
68137;BME280;54939;50.826;9.030;2023-01-28T02:10:05;99588.31;;;4.37;69.78
68137;BME280;54939;50.826;9.030;2023-01-28T02:10:36;99588.31;;;4.37;70.62
68137;BME280;54939;50.826;9.030;2023-01-28T02:11:06;99590.94;;;4.37;70.25
68137;BME280;54939;50.826;9.030;2023-01-28T02:11:38;99590.00;;;4.38;70.22
68137;BME280;54939;50.826;9.030;2023-01-28T02:12:12;99590.84;;;4.39;70.15
68137;BME280;54939;50.826;9.030;2023-01-28T02:12:49;99588.22;;;4.39;70.08
68137;BME280;54939;50.826;9.030;2023-01-28T02:13:21;99589.16;;;4.38;70.40
68137;BME280;54939;50.826;9.030;2023-01-28T02:13:54;99590.84;;;4.39;70.13
68137;BME280;54939;50.826;9.030;2023-01-28T02:14:27;99594.34;;;4.39;70.04
68137;BME280;54939;50.826;9.030;2023-01-28T02:14:59;99589.06;;;4.39;69.88
68137;BME280;54939;50.826;9.030;2023-01-28T02:15:30;99603.13;;;4.40;70.57
68137;BME280;54939;50.826;9.030;2023-01-28T02:16:00;99596.16;;;4.39;70.33
68137;BME280;54939;50.826;9.030;2023-01-28T02:16:31;99596.22;;;4.37;70.55
68137;BME280;54939;50.826;9.030;2023-01-28T02:17:02;99598.03;;;4.36;70.13
68137;BME280;54939;50.826;9.030;2023-01-28T02:17:33;99598.88;;;4.37;70.41
68137;BME280;54939;50.826;9.030;2023-01-28T02:18:04;99598.88;;;4.37;69.95
68137;BME280;54939;50.826;9.030;2023-01-28T02:18:34;99602.38;;;4.38;70.08
68137;BME280;54939;50.826;9.030;2023-01-28T02:19:05;99602.28;;;4.39;69.80
68137;BME280;54939;50.826;9.030;2023-01-28T02:19:37;99598.78;;;4.39;70.16
68137;BME280;54939;50.826;9.030;2023-01-28T02:20:13;99597.84;;;4.40;70.28
68137;BME280;54939;50.826;9.030;2023-01-28T02:21:39;99602.28;;;4.39;70.60
68137;BME280;54939;50.826;9.030;2023-01-28T02:23:30;99605.00;;;4.38;70.46
68137;BME280;54939;50.826;9.030;2023-01-28T02:24:27;99604.94;;;4.39;70.61
68137;BME280;54939;50.826;9.030;2023-01-28T02:25:40;99609.38;;;4.39;70.17
68137;BME280;54939;50.826;9.030;2023-01-28T02:27:35;99604.16;;;4.37;69.89
68137;BME280;54939;50.826;9.030;2023-01-28T02:28:16;99606.72;;;4.39;69.79
68137;BME280;54939;50.826;9.030;2023-01-28T02:28:54;99609.44;;;4.37;69.96
68137;BME280;54939;50.826;9.030;2023-01-28T02:29:32;99605.94;;;4.36;69.96
68137;BME280;54939;50.826;9.030;2023-01-28T02:30:21;99605.94;;;4.36;70.13
68137;BME280;54939;50.826;9.030;2023-01-28T02:31:02;99604.28;;;4.35;70.53
68137;BME280;54939;50.826;9.030;2023-01-28T02:31:37;99605.09;;;4.36;69.81
68137;BME280;54939;50.826;9.030;2023-01-28T02:32:11;99611.34;;;4.35;70.46
68137;BME280;54939;50.826;9.030;2023-01-28T02:33:07;99618.31;;;4.36;69.78
68137;BME280;54939;50.826;9.030;2023-01-28T02:33:44;99613.03;;;4.36;70.02
68137;BME280;54939;50.826;9.030;2023-01-28T02:34:27;99613.16;;;4.34;69.79
68137;BME280;54939;50.826;9.030;2023-01-28T02:35:02;99620.97;;;4.36;70.49
68137;BME280;54939;50.826;9.030;2023-01-28T02:35:53;99624.66;;;4.33;70.06
68137;BME280;54939;50.826;9.030;2023-01-28T02:36:59;99624.66;;;4.33;70.62
68137;BME280;54939;50.826;9.030;2023-01-28T02:37:39;99622.78;;;4.35;70.56
68137;BME280;54939;50.826;9.030;2023-01-28T02:38:14;99627.94;;;4.37;70.43
68137;BME280;54939;50.826;9.030;2023-01-28T02:38:47;99623.59;;;4.36;70.12
68137;BME280;54939;50.826;9.030;2023-01-28T02:39:19;99621.81;;;4.36;70.33
68137;BME280;54939;50.826;9.030;2023-01-28T02:39:53;99620.97;;;4.36;70.39
68137;BME280;54939;50.826;9.030;2023-01-28T02:40:27;99618.31;;;4.36;70.24
68137;BME280;54939;50.826;9.030;2023-01-28T02:41:03;99618.31;;;4.36;69.72
68137;BME280;54939;50.826;9.030;2023-01-28T02:41:40;99620.13;;;4.35;70.17
68137;BME280;54939;50.826;9.030;2023-01-28T02:42:13;99619.16;;;4.36;69.90
68137;BME280;54939;50.826;9.030;2023-01-28T02:42:46;99617.38;;;4.37;70.31
68137;BME280;54939;50.826;9.030;2023-01-28T02:43:16;99627.94;;;4.37;69.99
68137;BME280;54939;50.826;9.030;2023-01-28T02:43:46;99617.38;;;4.37;70.08
68137;BME280;54939;50.826;9.030;2023-01-28T02:44:16;99615.69;;;4.36;70.31
68137;BME280;54939;50.826;9.030;2023-01-28T02:44:46;99611.34;;;4.35;70.38
68137;BME280;54939;50.826;9.030;2023-01-28T02:45:50;99620.03;;;4.37;70.08
68137;BME280;54939;50.826;9.030;2023-01-28T02:46:39;99617.28;;;4.39;70.33
68137;BME280;54939;50.826;9.030;2023-01-28T02:47:28;99626.16;;;4.38;69.79
68137;BME280;54939;50.826;9.030;2023-01-28T02:48:17;99620.88;;;4.38;69.95
68137;BME280;54939;50.826;9.030;2023-01-28T02:48:48;99621.72;;;4.38;70.13
68137;BME280;54939;50.826;9.030;2023-01-28T02:49:52;99622.59;;;4.39;70.49
68137;BME280;54939;50.826;9.030;2023-01-28T02:50:28;99620.88;;;4.38;70.28
68137;BME280;54939;50.826;9.030;2023-01-28T02:51:02;99619.09;;;4.38;70.09
68137;BME280;54939;50.826;9.030;2023-01-28T02:53:26;99620.88;;;4.38;69.84
68137;BME280;54939;50.826;9.030;2023-01-28T02:54:13;99624.47;;;4.36;70.17
68137;BME280;54939;50.826;9.030;2023-01-28T02:54:59;99624.47;;;4.36;69.95
68137;BME280;54939;50.826;9.030;2023-01-28T02:55:38;99625.31;;;4.37;70.31
68137;BME280;54939;50.826;9.030;2023-01-28T02:57:42;99629.88;;;4.35;70.03
68137;BME280;54939;50.826;9.030;2023-01-28T02:58:58;99628.06;;;4.35;70.60
68137;BME280;54939;50.826;9.030;2023-01-28T02:59:54;99638.66;;;4.35;69.92
68137;BME280;54939;50.826;9.030;2023-01-28T03:00:32;99634.28;;;4.34;69.96
68137;BME280;54939;50.826;9.030;2023-01-28T03:01:38;99626.38;;;4.34;69.92
68137;BME280;54939;50.826;9.030;2023-01-28T03:02:28;99627.31;;;4.33;69.96
68137;BME280;54939;50.826;9.030;2023-01-28T03:03:04;99633.44;;;4.34;70.32
68137;BME280;54939;50.826;9.030;2023-01-28T03:03:42;99631.75;;;4.33;70.47
68137;BME280;54939;50.826;9.030;2023-01-28T03:04:14;99634.38;;;4.33;69.82
68137;BME280;54939;50.826;9.030;2023-01-28T03:05:28;99633.44;;;4.34;70.66
68137;BME280;54939;50.826;9.030;2023-01-28T03:06:07;99634.38;;;4.33;70.42
68137;BME280;54939;50.826;9.030;2023-01-28T03:06:40;99635.31;;;4.32;69.81
68137;BME280;54939;50.826;9.030;2023-01-28T03:07:13;99634.38;;;4.33;70.52